Terminal Aerodrome Forecast
Issued by NWS

Home | Current Version | Previous Version | Text Only | Print | Product List | Glossary On
Versions: 1 2 3 4 5 6 7 8 9 10 11 12 13 14 15 16 17 18
000
FTUS41 KBTV 250129 AAD
TAFMSS
TAF AMD
KMSS 250129Z 2501/2524 25004KT 3SM -RASN BR SCT004 OVC012
      TEMPO 2501/2504 1SM -SN BR BKN003 OVC010
     FM250400 28004KT 2SM BR VCSH BKN007 OVC015
     FM250700 VRB03KT 3SM BR BKN018 OVC025
     FM251200 02006KT P6SM BKN028 OVC035
     FM251500 03008KT P6SM OVC035=

USA.gov is the U.S. government's official web portal to all federal, state and local government web resources and services.